VIA003 TNCM-SVMI
Flight info
| Callsign | VIA003 |
|---|---|
| Flight time | N/A |
| Altitude | 34000 |
| Route | BOPAT2 DANDE M576 MILOK DCT LRS DCT MIDUR PULPO1 |
| Aircraft | MD11/H-SDE1FGHIJ1RWXYZ/LB1 |
Departure
| Time | N/A |
|---|---|
| Airport | Princess Juliana International Airport (TNCM) |
Arrival
| Time | 2025-10-09 21:01 |
|---|---|
| Airport | Maiquetía Simón Bolívar International Airport (SVMI) |
| Time | Latitude | Longitude | Altitude | Speed | Heading |
|---|---|---|---|---|---|
| 2025-10-09 19:35 | 17.52718 | -63.62825 | 22193 ft | 475 kts | 236° |
| 2025-10-09 19:35 | 17.48579 | -63.68299 | 23389 ft | 484 kts | 227° |
| 2025-10-09 19:36 | 17.43753 | -63.73284 | 24612 ft | 492 kts | 224° |
| 2025-10-09 19:36 | 17.38727 | -63.78291 | 25766 ft | 499 kts | 224° |
| 2025-10-09 19:39 | 17.16041 | -64.01408 | 32282 ft | 499 kts | 224° |
| 2025-10-09 19:40 | 16.98901 | -64.18655 | 33942 ft | 480 kts | 224° |
| 2025-10-09 19:43 | 16.77169 | -64.40563 | 33912 ft | 484 kts | 224° |
| 2025-10-09 19:44 | 16.60160 | -64.57743 | 33904 ft | 484 kts | 224° |
| 2025-10-09 19:46 | 16.40619 | -64.77329 | 33917 ft | 484 kts | 224° |
| 2025-10-09 19:48 | 16.21094 | -64.96878 | 33917 ft | 483 kts | 224° |
| 2025-10-09 19:51 | 15.99098 | -65.18753 | 33908 ft | 482 kts | 224° |
| 2025-10-09 19:52 | 15.81931 | -65.35780 | 33917 ft | 485 kts | 224° |
| 2025-10-09 19:54 | 15.62348 | -65.55230 | 33915 ft | 484 kts | 223° |
| 2025-10-09 19:56 | 15.42776 | -65.74654 | 33907 ft | 485 kts | 223° |
| 2025-10-09 19:58 | 15.20944 | -65.90241 | 33929 ft | 483 kts | 191° |
| 2025-10-09 20:00 | 14.94553 | -65.96310 | 33904 ft | 485 kts | 192° |
| 2025-10-09 20:02 | 14.68084 | -66.02632 | 33914 ft | 486 kts | 192° |
| 2025-10-09 20:04 | 14.41699 | -66.08933 | 33902 ft | 486 kts | 192° |
| 2025-10-09 20:07 | 14.11880 | -66.15999 | 33895 ft | 487 kts | 191° |
| 2025-10-09 20:08 | 13.88737 | -66.21473 | 33892 ft | 487 kts | 191° |
| 2025-10-09 20:10 | 13.62216 | -66.27750 | 33886 ft | 487 kts | 191° |
| 2025-10-09 20:12 | 13.35704 | -66.33999 | 33884 ft | 487 kts | 191° |
| 2025-10-09 20:14 | 13.09230 | -66.40234 | 33883 ft | 487 kts | 192° |
| 2025-10-09 20:16 | 12.82709 | -66.46474 | 33881 ft | 487 kts | 192° |
| 2025-10-09 20:18 | 12.56241 | -66.52658 | 33873 ft | 487 kts | 192° |
| 2025-10-09 20:20 | 12.29633 | -66.58871 | 30380 ft | 495 kts | 192° |
| 2025-10-09 20:22 | 12.02461 | -66.65230 | 23551 ft | 502 kts | 191° |
| 2025-10-09 20:23 | 11.95879 | -66.67374 | 22176 ft | 496 kts | 207° |
| 2025-10-09 20:23 | 11.90625 | -66.71834 | 20781 ft | 490 kts | 230° |
| 2025-10-09 20:24 | 11.86697 | -66.77475 | 19415 ft | 482 kts | 235° |
| 2025-10-09 20:24 | 11.82957 | -66.82946 | 18192 ft | 463 kts | 233° |
| 2025-10-09 20:25 | 11.79030 | -66.88112 | 16967 ft | 458 kts | 226° |
| 2025-10-09 20:25 | 11.76755 | -66.90346 | 16404 ft | 452 kts | 219° |
| 2025-10-09 20:26 | 11.71654 | -66.94036 | 15683 ft | 444 kts | 212° |
| 2025-10-09 20:26 | 11.63952 | -66.99204 | 14635 ft | 437 kts | 213° |
| 2025-10-09 20:27 | 11.58939 | -67.02679 | 14064 ft | 432 kts | 213° |
| 2025-10-09 20:27 | 11.54007 | -67.06113 | 13421 ft | 428 kts | 213° |
| 2025-10-09 20:28 | 11.49099 | -67.09513 | 12728 ft | 422 kts | 213° |
| 2025-10-09 20:28 | 11.44246 | -67.12873 | 11992 ft | 417 kts | 213° |
| 2025-10-09 20:29 | 11.39523 | -67.16133 | 11306 ft | 397 kts | 213° |
| 2025-10-09 20:29 | 11.37286 | -67.17680 | 11041 ft | 383 kts | 213° |
| 2025-10-09 20:30 | 11.32982 | -67.20609 | 10555 ft | 357 kts | 208° |
| 2025-10-09 20:30 | 11.26188 | -67.22118 | 10017 ft | 316 kts | 177° |
| 2025-10-09 20:31 | 11.21910 | -67.21899 | 9780 ft | 300 kts | 176° |
| 2025-10-09 20:31 | 11.17843 | -67.21775 | 9401 ft | 283 kts | 179° |
| 2025-10-09 20:32 | 11.13830 | -67.21742 | 8905 ft | 286 kts | 179° |
| 2025-10-09 20:32 | 11.09877 | -67.21718 | 8393 ft | 280 kts | 179° |
| 2025-10-09 20:33 | 11.07928 | -67.21696 | 8148 ft | 280 kts | 179° |
| 2025-10-09 20:33 | 11.04049 | -67.21653 | 7637 ft | 271 kts | 179° |
| 2025-10-09 20:34 | 11.00271 | -67.21611 | 7182 ft | 271 kts | 179° |
| 2025-10-09 20:34 | 10.94623 | -67.21542 | 6429 ft | 267 kts | 179° |
| 2025-10-09 20:35 | 10.90919 | -67.21500 | 5923 ft | 263 kts | 179° |
| 2025-10-09 20:35 | 10.87265 | -67.21465 | 5412 ft | 261 kts | 179° |
| 2025-10-09 20:36 | 10.83604 | -67.21423 | 5026 ft | 258 kts | 179° |
| 2025-10-09 20:36 | 10.80240 | -67.21381 | 5000 ft | 218 kts | 179° |
| 2025-10-09 20:37 | 10.77367 | -67.21309 | 4730 ft | 196 kts | 176° |
| 2025-10-09 20:37 | 10.76036 | -67.21227 | 4471 ft | 188 kts | 175° |
| 2025-10-09 20:38 | 10.73400 | -67.21073 | 4147 ft | 188 kts | 176° |
| 2025-10-09 20:38 | 10.69282 | -67.20886 | 4007 ft | 202 kts | 176° |
| 2025-10-09 20:39 | 10.66445 | -67.20740 | 4011 ft | 203 kts | 176° |
| 2025-10-09 20:39 | 10.63596 | -67.20601 | 4022 ft | 203 kts | 176° |
| 2025-10-09 20:40 | 10.60772 | -67.20328 | 3991 ft | 203 kts | 157° |
| 2025-10-09 20:40 | 10.59329 | -67.18059 | 3807 ft | 205 kts | 93° |
| 2025-10-09 20:41 | 10.59428 | -67.16611 | 3475 ft | 206 kts | 83° |
| 2025-10-09 20:41 | 10.59839 | -67.13759 | 2883 ft | 198 kts | 86° |
| 2025-10-09 20:42 | 10.60002 | -67.11108 | 2322 ft | 176 kts | 90° |
| 2025-10-09 20:42 | 10.60056 | -67.07411 | 1684 ft | 186 kts | 89° |
| 2025-10-09 20:43 | 10.60167 | -67.04845 | 1261 ft | 180 kts | 88° |
| 2025-10-09 20:43 | 10.60206 | -67.02313 | 590 ft | 177 kts | 92° |
| 2025-10-09 20:44 | 10.60257 | -66.99828 | 366 ft | 174 kts | 88° |
| 2025-10-09 20:44 | 10.60343 | -66.97430 | 637 ft | 168 kts | 86° |
| 2025-10-09 20:45 | 10.60455 | -66.96242 | 983 ft | 174 kts | 79° |
| 2025-10-09 20:45 | 10.61168 | -66.93864 | 1766 ft | 180 kts | 56° |
| 2025-10-09 20:46 | 10.63337 | -66.92657 | 2398 ft | 195 kts | 11° |
| 2025-10-09 20:46 | 10.67975 | -66.92420 | 3244 ft | 251 kts | 1° |
| 2025-10-09 20:47 | 10.71626 | -66.92497 | 3967 ft | 270 kts | 360° |
| 2025-10-09 20:47 | 10.75407 | -66.92480 | 3897 ft | 270 kts | 2° |
| 2025-10-09 20:48 | 10.79219 | -66.92374 | 3939 ft | 271 kts | 2° |
| 2025-10-09 20:48 | 10.83011 | -66.92310 | 3941 ft | 272 kts | 357° |
| 2025-10-09 20:49 | 10.84802 | -66.92888 | 4034 ft | 269 kts | 327° |
| 2025-10-09 20:49 | 10.87024 | -66.95898 | 4022 ft | 270 kts | 297° |
| 2025-10-09 20:50 | 10.88725 | -66.99290 | 3942 ft | 268 kts | 291° |
| 2025-10-09 20:50 | 10.87367 | -67.04353 | 3983 ft | 261 kts | 232° |
| 2025-10-09 20:51 | 10.85337 | -67.07441 | 3970 ft | 261 kts | 239° |
| 2025-10-09 20:51 | 10.83695 | -67.10760 | 3974 ft | 262 kts | 244° |
| 2025-10-09 20:52 | 10.82956 | -67.12446 | 3976 ft | 263 kts | 245° |
| 2025-10-09 20:52 | 10.80700 | -67.17542 | 3982 ft | 263 kts | 244° |
| 2025-10-09 20:53 | 10.78900 | -67.20740 | 3980 ft | 257 kts | 218° |
| 2025-10-09 20:53 | 10.77305 | -67.21541 | 4026 ft | 257 kts | 191° |
| 2025-10-09 20:54 | 10.73753 | -67.21349 | 3969 ft | 247 kts | 171° |
| 2025-10-09 20:54 | 10.68922 | -67.20830 | 4014 ft | 225 kts | 177° |
| 2025-10-09 20:55 | 10.65795 | -67.20757 | 4030 ft | 225 kts | 179° |
| 2025-10-09 20:55 | 10.62730 | -67.20712 | 4043 ft | 208 kts | 178° |
| 2025-10-09 20:56 | 10.59999 | -67.20158 | 4056 ft | 198 kts | 139° |
| 2025-10-09 20:56 | 10.59212 | -67.17512 | 3654 ft | 208 kts | 84° |
| 2025-10-09 20:57 | 10.59725 | -67.14694 | 2964 ft | 195 kts | 83° |
| 2025-10-09 20:57 | 10.59890 | -67.13335 | 2706 ft | 190 kts | 86° |
| 2025-10-09 20:58 | 10.59992 | -67.10747 | 2149 ft | 171 kts | 91° |
| 2025-10-09 20:58 | 10.60043 | -67.07098 | 1677 ft | 181 kts | 88° |
| 2025-10-09 20:59 | 10.60125 | -67.04539 | 1032 ft | 181 kts | 89° |
| 2025-10-09 20:59 | 10.60172 | -67.02072 | 513 ft | 166 kts | 85° |
| 2025-10-09 21:00 | 10.60259 | -66.99629 | 355 ft | 169 kts | 88° |
| 2025-10-09 21:00 | 10.60288 | -66.98087 | 283 ft | 46 kts | 75° |
| 2025-10-09 21:01 | 10.60348 | -66.97859 | 273 ft | 26 kts | 77° |
| 2025-10-09 21:01 | 10.60261 | -66.97732 | 271 ft | 7 kts | 238° |
| 2025-10-09 21:02 | 10.60237 | -66.97810 | 275 ft | 3 kts | 255° |
| 2025-10-09 21:02 | 10.60208 | -66.97930 | 280 ft | 8 kts | 257° |
| 2025-10-09 21:03 | 10.60176 | -66.98057 | 286 ft | 10 kts | 255° |
| 2025-10-09 21:03 | 10.60138 | -66.98216 | 292 ft | 13 kts | 257° |
| 2025-10-09 21:04 | 10.60092 | -66.98401 | 302 ft | 14 kts | 255° |
| 2025-10-09 21:04 | 10.60060 | -66.98495 | 308 ft | 14 kts | 243° |
| 2025-10-09 21:05 | 10.59994 | -66.98692 | 318 ft | 15 kts | 255° |
| 2025-10-09 21:05 | 10.59942 | -66.98888 | 331 ft | 13 kts | 255° |
| 2025-10-09 21:06 | 10.59896 | -66.99077 | 342 ft | 13 kts | 256° |
| 2025-10-09 21:06 | 10.59830 | -66.99344 | 360 ft | 12 kts | 256° |
| 2025-10-09 21:07 | 10.59787 | -66.99515 | 369 ft | 12 kts | 257° |
| 2025-10-09 21:07 | 10.59834 | -66.99713 | 374 ft | 16 kts | 323° |
| 2025-10-09 21:08 | 10.60069 | -66.99670 | 363 ft | 19 kts | 357° |
| 2025-10-09 21:08 | 10.60138 | -66.99735 | 362 ft | 16 kts | 267° |
| 2025-10-09 21:09 | 10.60120 | -66.99977 | 370 ft | 19 kts | 267° |
| 2025-10-09 21:09 | 10.60110 | -67.00252 | 374 ft | 15 kts | 260° |
| 2025-10-09 21:10 | 10.59995 | -67.00522 | 376 ft | 20 kts | 268° |
| 2025-10-09 21:10 | 10.60085 | -67.00613 | 373 ft | 8 kts | 357° |
| 2025-10-09 21:11 | 10.60108 | -67.00614 | 373 ft | 0 kts | 357° |